sensor_id;sensor_type;location;lat;lon;timestamp;temperature;humidity
68450;SHT30;55434;39.570;2.652;2022-08-19T00:00:08;24.59;55.20
68450;SHT30;55434;39.570;2.652;2022-08-19T00:02:35;25.06;54.62
68450;SHT30;55434;39.570;2.652;2022-08-19T00:05:01;25.18;54.38
68450;SHT30;55434;39.570;2.652;2022-08-19T00:07:27;25.29;53.93
68450;SHT30;55434;39.570;2.652;2022-08-19T00:09:52;25.16;54.31
68450;SHT30;55434;39.570;2.652;2022-08-19T00:12:19;24.93;54.25
68450;SHT30;55434;39.570;2.652;2022-08-19T00:14:45;24.76;54.86
68450;SHT30;55434;39.570;2.652;2022-08-19T00:17:10;24.62;55.34
68450;SHT30;55434;39.570;2.652;2022-08-19T00:19:36;24.55;55.86
68450;SHT30;55434;39.570;2.652;2022-08-19T00:22:03;24.48;56.26
68450;SHT30;55434;39.570;2.652;2022-08-19T00:24:29;24.42;56.64
68450;SHT30;55434;39.570;2.652;2022-08-19T00:26:55;24.37;57.01
68450;SHT30;55434;39.570;2.652;2022-08-19T00:29:23;24.42;56.70
68450;SHT30;55434;39.570;2.652;2022-08-19T00:31:50;24.42;56.71
68450;SHT30;55434;39.570;2.652;2022-08-19T00:34:19;24.45;56.88
68450;SHT30;55434;39.570;2.652;2022-08-19T00:36:45;24.45;57.42
68450;SHT30;55434;39.570;2.652;2022-08-19T00:39:12;24.44;57.53
68450;SHT30;55434;39.570;2.652;2022-08-19T00:41:38;24.47;57.60
68450;SHT30;55434;39.570;2.652;2022-08-19T00:44:13;24.88;56.85
68450;SHT30;55434;39.570;2.652;2022-08-19T00:46:41;24.69;56.98
68450;SHT30;55434;39.570;2.652;2022-08-19T00:51:47;24.79;57.53
68450;SHT30;55434;39.570;2.652;2022-08-19T00:54:15;24.76;57.35
68450;SHT30;55434;39.570;2.652;2022-08-19T00:56:40;24.78;57.39
68450;SHT30;55434;39.570;2.652;2022-08-19T00:59:06;24.98;56.79
68450;SHT30;55434;39.570;2.652;2022-08-19T01:01:37;25.13;56.61
68450;SHT30;55434;39.570;2.652;2022-08-19T01:04:04;24.85;56.21
68450;SHT30;55434;39.570;2.652;2022-08-19T01:06:30;24.89;56.55
68450;SHT30;55434;39.570;2.652;2022-08-19T01:08:58;24.79;56.92
68450;SHT30;55434;39.570;2.652;2022-08-19T01:11:25;24.62;57.41
68450;SHT30;55434;39.570;2.652;2022-08-19T01:13:52;24.49;57.59
68450;SHT30;55434;39.570;2.652;2022-08-19T01:16:21;24.20;58.33
68450;SHT30;55434;39.570;2.652;2022-08-19T01:18:47;24.44;57.93
68450;SHT30;55434;39.570;2.652;2022-08-19T01:21:34;24.45;57.41
68450;SHT30;55434;39.570;2.652;2022-08-19T01:24:03;24.41;58.09
68450;SHT30;55434;39.570;2.652;2022-08-19T01:26:29;24.52;57.81
68450;SHT30;55434;39.570;2.652;2022-08-19T01:28:56;24.64;57.94
68450;SHT30;55434;39.570;2.652;2022-08-19T01:31:25;24.45;58.65
68450;SHT30;55434;39.570;2.652;2022-08-19T01:33:54;24.52;58.78
68450;SHT30;55434;39.570;2.652;2022-08-19T01:36:33;24.42;59.49
68450;SHT30;55434;39.570;2.652;2022-08-19T01:39:01;24.47;59.48
68450;SHT30;55434;39.570;2.652;2022-08-19T01:41:27;24.67;59.13
68450;SHT30;55434;39.570;2.652;2022-08-19T01:43:53;24.58;59.78
68450;SHT30;55434;39.570;2.652;2022-08-19T01:46:19;24.37;60.68
68450;SHT30;55434;39.570;2.652;2022-08-19T01:48:46;24.48;60.43
68450;SHT30;55434;39.570;2.652;2022-08-19T01:51:12;24.32;61.00
68450;SHT30;55434;39.570;2.652;2022-08-19T01:53:40;24.61;60.32
68450;SHT30;55434;39.570;2.652;2022-08-19T01:56:06;24.42;60.74
68450;SHT30;55434;39.570;2.652;2022-08-19T01:58:36;24.41;60.93
68450;SHT30;55434;39.570;2.652;2022-08-19T02:01:05;24.22;61.43
68450;SHT30;55434;39.570;2.652;2022-08-19T02:03:31;24.08;61.93
68450;SHT30;55434;39.570;2.652;2022-08-19T02:06:01;24.03;61.82
68450;SHT30;55434;39.570;2.652;2022-08-19T02:08:29;23.94;62.22
68450;SHT30;55434;39.570;2.652;2022-08-19T02:11:05;23.80;62.71
68450;SHT30;55434;39.570;2.652;2022-08-19T02:13:42;23.71;63.31
68450;SHT30;55434;39.570;2.652;2022-08-19T02:16:07;23.67;63.53
68450;SHT30;55434;39.570;2.652;2022-08-19T02:18:33;23.57;63.94
68450;SHT30;55434;39.570;2.652;2022-08-19T02:20:58;23.56;64.25
68450;SHT30;55434;39.570;2.652;2022-08-19T02:23:24;23.70;63.85
68450;SHT30;55434;39.570;2.652;2022-08-19T02:25:51;23.92;63.18
68450;SHT30;55434;39.570;2.652;2022-08-19T02:28:17;23.86;63.07
68450;SHT30;55434;39.570;2.652;2022-08-19T02:30:42;23.63;63.64
68450;SHT30;55434;39.570;2.652;2022-08-19T02:33:08;23.60;63.19
68450;SHT30;55434;39.570;2.652;2022-08-19T02:35:34;23.56;63.24
68450;SHT30;55434;39.570;2.652;2022-08-19T02:37:59;23.65;63.19
68450;SHT30;55434;39.570;2.652;2022-08-19T02:40:58;23.59;63.21
68450;SHT30;55434;39.570;2.652;2022-08-19T02:43:25;23.57;62.39
68450;SHT30;55434;39.570;2.652;2022-08-19T02:45:51;23.46;62.89
68450;SHT30;55434;39.570;2.652;2022-08-19T02:48:19;23.52;62.86
68450;SHT30;55434;39.570;2.652;2022-08-19T02:50:46;23.46;62.95
68450;SHT30;55434;39.570;2.652;2022-08-19T02:53:12;23.42;63.16
68450;SHT30;55434;39.570;2.652;2022-08-19T02:55:47;23.59;62.83
68450;SHT30;55434;39.570;2.652;2022-08-19T02:58:14;23.57;62.87
68450;SHT30;55434;39.570;2.652;2022-08-19T03:00:48;23.52;62.96
68450;SHT30;55434;39.570;2.652;2022-08-19T03:03:14;23.46;63.15
68450;SHT30;55434;39.570;2.652;2022-08-19T03:05:41;23.46;63.32
68450;SHT30;55434;39.570;2.652;2022-08-19T03:08:07;23.48;63.19
68450;SHT30;55434;39.570;2.652;2022-08-19T03:10:40;23.66;63.01
68450;SHT30;55434;39.570;2.652;2022-08-19T03:13:09;23.66;62.59
68450;SHT30;55434;39.570;2.652;2022-08-19T03:15:34;23.65;62.82
68450;SHT30;55434;39.570;2.652;2022-08-19T03:18:03;23.62;62.77
68450;SHT30;55434;39.570;2.652;2022-08-19T03:20:29;23.66;62.88
68450;SHT30;55434;39.570;2.652;2022-08-19T03:22:54;23.67;62.66
68450;SHT30;55434;39.570;2.652;2022-08-19T03:25:20;23.70;62.64
68450;SHT30;55434;39.570;2.652;2022-08-19T03:27:45;23.86;62.18
68450;SHT30;55434;39.570;2.652;2022-08-19T03:30:14;23.89;62.31
68450;SHT30;55434;39.570;2.652;2022-08-19T03:32:39;23.89;62.18
68450;SHT30;55434;39.570;2.652;2022-08-19T03:35:06;23.87;62.27
68450;SHT30;55434;39.570;2.652;2022-08-19T03:37:32;23.84;62.29
68450;SHT30;55434;39.570;2.652;2022-08-19T03:39:57;23.89;62.23
68450;SHT30;55434;39.570;2.652;2022-08-19T03:42:23;23.87;62.26
68450;SHT30;55434;39.570;2.652;2022-08-19T03:44:48;23.77;62.44
68450;SHT30;55434;39.570;2.652;2022-08-19T03:47:14;23.73;62.78
68450;SHT30;55434;39.570;2.652;2022-08-19T03:49:42;23.74;63.07
68450;SHT30;55434;39.570;2.652;2022-08-19T03:52:07;23.79;63.44
68450;SHT30;55434;39.570;2.652;2022-08-19T03:54:33;24.21;62.17
68450;SHT30;55434;39.570;2.652;2022-08-19T03:56:59;24.30;62.26
68450;SHT30;55434;39.570;2.652;2022-08-19T03:59:30;24.30;62.51
68450;SHT30;55434;39.570;2.652;2022-08-19T04:01:59;24.28;62.82
68450;SHT30;55434;39.570;2.652;2022-08-19T04:04:27;23.92;63.80
68450;SHT30;55434;39.570;2.652;2022-08-19T04:06:53;23.65;64.74
68450;SHT30;55434;39.570;2.652;2022-08-19T04:09:19;23.43;65.48
68450;SHT30;55434;39.570;2.652;2022-08-19T04:11:50;23.67;64.98
68450;SHT30;55434;39.570;2.652;2022-08-19T04:14:21;23.98;64.06
68450;SHT30;55434;39.570;2.652;2022-08-19T04:16:48;23.83;64.08
68450;SHT30;55434;39.570;2.652;2022-08-19T04:19:16;24.11;63.48
68450;SHT30;55434;39.570;2.652;2022-08-19T04:21:44;23.87;63.98
68450;SHT30;55434;39.570;2.652;2022-08-19T04:24:11;23.66;64.28
68450;SHT30;55434;39.570;2.652;2022-08-19T04:26:37;23.69;64.09
68450;SHT30;55434;39.570;2.652;2022-08-19T04:29:11;23.45;64.45
68450;SHT30;55434;39.570;2.652;2022-08-19T04:31:37;23.28;65.01
68450;SHT30;55434;39.570;2.652;2022-08-19T04:34:06;23.16;65.34
68450;SHT30;55434;39.570;2.652;2022-08-19T04:36:34;23.09;65.79
68450;SHT30;55434;39.570;2.652;2022-08-19T04:39:04;23.01;65.86
68450;SHT30;55434;39.570;2.652;2022-08-19T04:41:29;23.14;65.73
68450;SHT30;55434;39.570;2.652;2022-08-19T04:44:14;23.76;63.76
68450;SHT30;55434;39.570;2.652;2022-08-19T04:46:43;23.73;64.07
68450;SHT30;55434;39.570;2.652;2022-08-19T04:49:09;23.89;63.53
68450;SHT30;55434;39.570;2.652;2022-08-19T04:51:35;23.81;63.53
68450;SHT30;55434;39.570;2.652;2022-08-19T04:54:03;23.87;63.46
68450;SHT30;55434;39.570;2.652;2022-08-19T04:56:28;23.76;63.55
68450;SHT30;55434;39.570;2.652;2022-08-19T04:58:55;23.46;64.49
68450;SHT30;55434;39.570;2.652;2022-08-19T05:01:24;23.38;65.04
68450;SHT30;55434;39.570;2.652;2022-08-19T05:03:50;23.30;65.14
68450;SHT30;55434;39.570;2.652;2022-08-19T05:06:19;23.30;65.36
68450;SHT30;55434;39.570;2.652;2022-08-19T05:08:46;23.22;65.33
68450;SHT30;55434;39.570;2.652;2022-08-19T05:11:26;23.16;65.84
68450;SHT30;55434;39.570;2.652;2022-08-19T05:13:51;23.12;65.96
68450;SHT30;55434;39.570;2.652;2022-08-19T05:16:19;23.09;66.30
68450;SHT30;55434;39.570;2.652;2022-08-19T05:18:45;23.16;65.71
68450;SHT30;55434;39.570;2.652;2022-08-19T05:21:30;23.16;65.99
68450;SHT30;55434;39.570;2.652;2022-08-19T05:24:15;23.30;65.75
68450;SHT30;55434;39.570;2.652;2022-08-19T05:26:46;23.29;65.75
68450;SHT30;55434;39.570;2.652;2022-08-19T05:29:14;23.46;65.29
68450;SHT30;55434;39.570;2.652;2022-08-19T05:31:39;23.36;65.60
68450;SHT30;55434;39.570;2.652;2022-08-19T05:34:06;23.30;65.78
68450;SHT30;55434;39.570;2.652;2022-08-19T05:36:38;23.26;66.10
68450;SHT30;55434;39.570;2.652;2022-08-19T05:39:09;23.15;66.39
68450;SHT30;55434;39.570;2.652;2022-08-19T05:41:35;23.18;66.59
68450;SHT30;55434;39.570;2.652;2022-08-19T05:44:03;23.43;65.83
68450;SHT30;55434;39.570;2.652;2022-08-19T05:46:31;23.65;65.35
68450;SHT30;55434;39.570;2.652;2022-08-19T05:48:56;23.73;64.90
68450;SHT30;55434;39.570;2.652;2022-08-19T05:51:23;23.55;65.59
68450;SHT30;55434;39.570;2.652;2022-08-19T05:53:49;23.63;65.59
68450;SHT30;55434;39.570;2.652;2022-08-19T05:56:15;23.53;65.88
68450;SHT30;55434;39.570;2.652;2022-08-19T05:58:43;23.70;65.31
68450;SHT30;55434;39.570;2.652;2022-08-19T06:01:16;23.59;65.78
68450;SHT30;55434;39.570;2.652;2022-08-19T06:03:41;23.60;65.67
68450;SHT30;55434;39.570;2.652;2022-08-19T06:06:09;23.53;65.87
68450;SHT30;55434;39.570;2.652;2022-08-19T06:08:36;23.53;66.08
68450;SHT30;55434;39.570;2.652;2022-08-19T06:11:41;23.71;65.78
68450;SHT30;55434;39.570;2.652;2022-08-19T06:14:11;23.86;65.55
68450;SHT30;55434;39.570;2.652;2022-08-19T06:16:38;23.81;65.63
68450;SHT30;55434;39.570;2.652;2022-08-19T06:19:08;23.94;65.25
68450;SHT30;55434;39.570;2.652;2022-08-19T06:21:36;23.84;65.60
68450;SHT30;55434;39.570;2.652;2022-08-19T06:24:07;23.89;65.62
68450;SHT30;55434;39.570;2.652;2022-08-19T06:26:34;24.00;65.24
68450;SHT30;55434;39.570;2.652;2022-08-19T06:29:01;24.11;65.01
68450;SHT30;55434;39.570;2.652;2022-08-19T06:31:29;24.14;65.03
68450;SHT30;55434;39.570;2.652;2022-08-19T06:33:56;24.13;65.18
68450;SHT30;55434;39.570;2.652;2022-08-19T06:36:25;24.22;64.88
68450;SHT30;55434;39.570;2.652;2022-08-19T06:38:55;24.30;64.71
68450;SHT30;55434;39.570;2.652;2022-08-19T06:41:23;24.24;64.92
68450;SHT30;55434;39.570;2.652;2022-08-19T06:43:49;24.27;64.95
68450;SHT30;55434;39.570;2.652;2022-08-19T06:46:16;24.49;64.30
68450;SHT30;55434;39.570;2.652;2022-08-19T06:48:44;24.58;64.38
68450;SHT30;55434;39.570;2.652;2022-08-19T06:51:10;24.57;64.27
68450;SHT30;55434;39.570;2.652;2022-08-19T06:53:35;24.52;64.39
68450;SHT30;55434;39.570;2.652;2022-08-19T06:56:01;24.93;63.98
68450;SHT30;55434;39.570;2.652;2022-08-19T06:58:31;25.00;63.38
68450;SHT30;55434;39.570;2.652;2022-08-19T07:01:03;24.93;63.28
68450;SHT30;55434;39.570;2.652;2022-08-19T07:03:31;24.89;63.38
68450;SHT30;55434;39.570;2.652;2022-08-19T07:06:02;24.89;63.51
68450;SHT30;55434;39.570;2.652;2022-08-19T07:08:28;24.85;63.57
68450;SHT30;55434;39.570;2.652;2022-08-19T07:10:53;24.98;63.44
68450;SHT30;55434;39.570;2.652;2022-08-19T07:13:19;25.19;62.64
68450;SHT30;55434;39.570;2.652;2022-08-19T07:15:47;25.39;62.24
68450;SHT30;55434;39.570;2.652;2022-08-19T07:18:14;25.29;62.31
68450;SHT30;55434;39.570;2.652;2022-08-19T07:20:40;25.27;62.52
68450;SHT30;55434;39.570;2.652;2022-08-19T07:23:06;25.36;62.43
68450;SHT30;55434;39.570;2.652;2022-08-19T07:25:32;25.54;62.12
68450;SHT30;55434;39.570;2.652;2022-08-19T07:27:57;25.71;61.64
68450;SHT30;55434;39.570;2.652;2022-08-19T07:30:23;25.85;61.54
68450;SHT30;55434;39.570;2.652;2022-08-19T07:32:49;25.93;61.40
68450;SHT30;55434;39.570;2.652;2022-08-19T07:35:16;25.98;61.30
68450;SHT30;55434;39.570;2.652;2022-08-19T07:37:44;26.01;61.17
68450;SHT30;55434;39.570;2.652;2022-08-19T07:40:11;26.09;60.96
68450;SHT30;55434;39.570;2.652;2022-08-19T07:42:37;26.04;61.12
68450;SHT30;55434;39.570;2.652;2022-08-19T07:45:04;26.04;61.12
68450;SHT30;55434;39.570;2.652;2022-08-19T07:47:32;26.11;60.97
68450;SHT30;55434;39.570;2.652;2022-08-19T07:49:57;26.18;60.89
68450;SHT30;55434;39.570;2.652;2022-08-19T07:52:23;26.24;60.69
68450;SHT30;55434;39.570;2.652;2022-08-19T07:54:50;26.22;60.75
68450;SHT30;55434;39.570;2.652;2022-08-19T07:57:16;26.34;60.67
68450;SHT30;55434;39.570;2.652;2022-08-19T07:59:42;26.32;60.79
68450;SHT30;55434;39.570;2.652;2022-08-19T08:02:08;26.32;61.00
68450;SHT30;55434;39.570;2.652;2022-08-19T08:04:34;26.32;61.15
68450;SHT30;55434;39.570;2.652;2022-08-19T08:07:18;26.35;61.22
68450;SHT30;55434;39.570;2.652;2022-08-19T08:10:04;26.41;61.50
68450;SHT30;55434;39.570;2.652;2022-08-19T08:12:35;26.48;61.50
68450;SHT30;55434;39.570;2.652;2022-08-19T08:15:05;26.55;61.30
68450;SHT30;55434;39.570;2.652;2022-08-19T08:17:33;26.65;61.29
68450;SHT30;55434;39.570;2.652;2022-08-19T08:19:58;26.69;61.82
68450;SHT30;55434;39.570;2.652;2022-08-19T08:22:25;26.73;61.52
68450;SHT30;55434;39.570;2.652;2022-08-19T08:25:10;26.73;60.97
68450;SHT30;55434;39.570;2.652;2022-08-19T08:27:37;26.71;61.12
68450;SHT30;55434;39.570;2.652;2022-08-19T08:30:07;26.73;60.24
68450;SHT30;55434;39.570;2.652;2022-08-19T08:32:38;26.87;60.86
68450;SHT30;55434;39.570;2.652;2022-08-19T08:35:05;26.90;60.80
68450;SHT30;55434;39.570;2.652;2022-08-19T08:37:31;26.90;60.15
68450;SHT30;55434;39.570;2.652;2022-08-19T08:39:57;27.02;60.03
68450;SHT30;55434;39.570;2.652;2022-08-19T08:42:34;27.11;59.62
68450;SHT30;55434;39.570;2.652;2022-08-19T08:45:13;27.17;59.32
68450;SHT30;55434;39.570;2.652;2022-08-19T08:47:43;27.16;58.25
68450;SHT30;55434;39.570;2.652;2022-08-19T08:50:33;27.18;58.79
68450;SHT30;55434;39.570;2.652;2022-08-19T08:53:02;27.24;58.57
68450;SHT30;55434;39.570;2.652;2022-08-19T08:55:30;27.29;58.19
68450;SHT30;55434;39.570;2.652;2022-08-19T08:58:14;27.38;57.95
68450;SHT30;55434;39.570;2.652;2022-08-19T09:00:45;27.34;58.37
68450;SHT30;55434;39.570;2.652;2022-08-19T09:03:23;27.26;58.47
68450;SHT30;55434;39.570;2.652;2022-08-19T09:05:58;27.30;57.75
68450;SHT30;55434;39.570;2.652;2022-08-19T09:16:35;27.47;56.75
68450;SHT30;55434;39.570;2.652;2022-08-19T09:19:04;27.58;56.23
68450;SHT30;55434;39.570;2.652;2022-08-19T09:21:29;27.72;55.21
68450;SHT30;55434;39.570;2.652;2022-08-19T09:23:55;27.77;54.83
68450;SHT30;55434;39.570;2.652;2022-08-19T09:26:23;27.74;54.48
68450;SHT30;55434;39.570;2.652;2022-08-19T09:28:50;27.85;54.20
68450;SHT30;55434;39.570;2.652;2022-08-19T09:31:20;27.98;54.55
68450;SHT30;55434;39.570;2.652;2022-08-19T09:33:50;28.15;54.38
68450;SHT30;55434;39.570;2.652;2022-08-19T09:36:21;28.19;54.05
68450;SHT30;55434;39.570;2.652;2022-08-19T09:38:48;28.29;52.70
68450;SHT30;55434;39.570;2.652;2022-08-19T09:41:22;28.39;52.28
68450;SHT30;55434;39.570;2.652;2022-08-19T09:43:50;28.36;52.85
68450;SHT30;55434;39.570;2.652;2022-08-19T09:46:21;28.40;52.69
68450;SHT30;55434;39.570;2.652;2022-08-19T09:48:48;28.52;52.89
68450;SHT30;55434;39.570;2.652;2022-08-19T09:51:20;28.43;51.28
68450;SHT30;55434;39.570;2.652;2022-08-19T09:53:47;28.52;51.88
68450;SHT30;55434;39.570;2.652;2022-08-19T09:56:16;28.43;52.94
68450;SHT30;55434;39.570;2.652;2022-08-19T09:58:43;28.64;52.47
68450;SHT30;55434;39.570;2.652;2022-08-19T10:01:09;28.74;52.50
68450;SHT30;55434;39.570;2.652;2022-08-19T10:03:36;28.77;52.33
68450;SHT30;55434;39.570;2.652;2022-08-19T10:06:04;28.76;52.51
68450;SHT30;55434;39.570;2.652;2022-08-19T10:08:34;28.70;53.41
68450;SHT30;55434;39.570;2.652;2022-08-19T10:11:00;28.84;53.57
68450;SHT30;55434;39.570;2.652;2022-08-19T10:13:28;29.04;53.58
68450;SHT30;55434;39.570;2.652;2022-08-19T10:15:56;29.12;53.59
68450;SHT30;55434;39.570;2.652;2022-08-19T10:18:27;29.41;53.22
68450;SHT30;55434;39.570;2.652;2022-08-19T10:21:06;29.39;53.66
68450;SHT30;55434;39.570;2.652;2022-08-19T10:23:35;29.65;52.66
68450;SHT30;55434;39.570;2.652;2022-08-19T10:26:03;29.79;52.18
68450;SHT30;55434;39.570;2.652;2022-08-19T10:28:30;30.22;51.08
68450;SHT30;55434;39.570;2.652;2022-08-19T10:30:55;30.13;50.60
68450;SHT30;55434;39.570;2.652;2022-08-19T10:33:21;30.22;50.03
68450;SHT30;55434;39.570;2.652;2022-08-19T10:35:46;29.85;50.55
68450;SHT30;55434;39.570;2.652;2022-08-19T10:38:12;29.72;50.43
68450;SHT30;55434;39.570;2.652;2022-08-19T10:40:38;29.39;51.03
68450;SHT30;55434;39.570;2.652;2022-08-19T10:43:03;29.41;50.98
68450;SHT30;55434;39.570;2.652;2022-08-19T10:45:29;29.27;51.45
68450;SHT30;55434;39.570;2.652;2022-08-19T10:47:55;29.00;52.14
68450;SHT30;55434;39.570;2.652;2022-08-19T10:50:21;28.97;52.45
68450;SHT30;55434;39.570;2.652;2022-08-19T10:53:07;28.90;51.70
68450;SHT30;55434;39.570;2.652;2022-08-19T10:55:36;28.76;51.65
68450;SHT30;55434;39.570;2.652;2022-08-19T10:58:21;28.83;51.82
68450;SHT30;55434;39.570;2.652;2022-08-19T11:00:56;28.79;50.70
68450;SHT30;55434;39.570;2.652;2022-08-19T11:03:23;29.17;49.88
68450;SHT30;55434;39.570;2.652;2022-08-19T11:06:03;30.71;46.74
68450;SHT30;55434;39.570;2.652;2022-08-19T11:08:30;32.24;43.16
68450;SHT30;55434;39.570;2.652;2022-08-19T11:10:59;31.10;45.49
68450;SHT30;55434;39.570;2.652;2022-08-19T11:13:39;30.00;47.13
68450;SHT30;55434;39.570;2.652;2022-08-19T11:16:11;29.66;48.44
68450;SHT30;55434;39.570;2.652;2022-08-19T11:18:40;29.32;49.90
68450;SHT30;55434;39.570;2.652;2022-08-19T11:23:37;33.32;40.39
68450;SHT30;55434;39.570;2.652;2022-08-19T11:26:02;33.56;40.41
68450;SHT30;55434;39.570;2.652;2022-08-19T11:28:28;33.49;41.03
68450;SHT30;55434;39.570;2.652;2022-08-19T11:30:54;33.92;40.09
68450;SHT30;55434;39.570;2.652;2022-08-19T11:33:19;34.38;39.89
68450;SHT30;55434;39.570;2.652;2022-08-19T11:35:45;34.51;39.21
68450;SHT30;55434;39.570;2.652;2022-08-19T11:38:10;34.65;39.05
68450;SHT30;55434;39.570;2.652;2022-08-19T11:40:38;34.67;39.25
68450;SHT30;55434;39.570;2.652;2022-08-19T11:43:05;34.54;38.84
68450;SHT30;55434;39.570;2.652;2022-08-19T11:45:32;34.44;39.02
68450;SHT30;55434;39.570;2.652;2022-08-19T11:47:58;34.49;38.50
68450;SHT30;55434;39.570;2.652;2022-08-19T11:50:24;34.79;38.00
68450;SHT30;55434;39.570;2.652;2022-08-19T11:52:50;34.72;38.20
68450;SHT30;55434;39.570;2.652;2022-08-19T11:55:20;34.65;38.39
68450;SHT30;55434;39.570;2.652;2022-08-19T11:57:46;34.67;38.13
68450;SHT30;55434;39.570;2.652;2022-08-19T12:00:12;34.01;39.57
68450;SHT30;55434;39.570;2.652;2022-08-19T12:02:39;34.43;39.28
68450;SHT30;55434;39.570;2.652;2022-08-19T12:05:05;34.58;39.18
68450;SHT30;55434;39.570;2.652;2022-08-19T12:07:34;34.44;39.82
68450;SHT30;55434;39.570;2.652;2022-08-19T12:10:00;34.47;39.59
68450;SHT30;55434;39.570;2.652;2022-08-19T12:12:26;34.69;39.93
68450;SHT30;55434;39.570;2.652;2022-08-19T12:14:52;34.58;40.02
68450;SHT30;55434;39.570;2.652;2022-08-19T12:17:28;34.84;39.34
68450;SHT30;55434;39.570;2.652;2022-08-19T12:19:54;34.40;40.01
68450;SHT30;55434;39.570;2.652;2022-08-19T12:22:19;34.75;38.71
68450;SHT30;55434;39.570;2.652;2022-08-19T12:24:46;34.55;38.97
68450;SHT30;55434;39.570;2.652;2022-08-19T12:27:11;34.36;38.98
68450;SHT30;55434;39.570;2.652;2022-08-19T12:29:37;34.69;37.89
68450;SHT30;55434;39.570;2.652;2022-08-19T12:32:02;34.59;38.75
68450;SHT30;55434;39.570;2.652;2022-08-19T12:34:29;34.11;39.94
68450;SHT30;55434;39.570;2.652;2022-08-19T12:37:00;33.77;41.14
68450;SHT30;55434;39.570;2.652;2022-08-19T12:39:26;34.11;40.96
68450;SHT30;55434;39.570;2.652;2022-08-19T12:41:52;33.92;40.40
68450;SHT30;55434;39.570;2.652;2022-08-19T12:44:18;34.38;40.04
68450;SHT30;55434;39.570;2.652;2022-08-19T12:46:43;33.79;39.59
68450;SHT30;55434;39.570;2.652;2022-08-19T12:49:09;34.17;40.12
68450;SHT30;55434;39.570;2.652;2022-08-19T12:51:35;33.94;40.53
68450;SHT30;55434;39.570;2.652;2022-08-19T12:54:01;34.13;40.01
68450;SHT30;55434;39.570;2.652;2022-08-19T12:56:27;33.73;40.61
68450;SHT30;55434;39.570;2.652;2022-08-19T12:58:53;33.69;40.61
68450;SHT30;55434;39.570;2.652;2022-08-19T13:01:19;32.81;42.11
68450;SHT30;55434;39.570;2.652;2022-08-19T13:03:46;33.04;41.68
68450;SHT30;55434;39.570;2.652;2022-08-19T13:06:12;32.57;41.96
68450;SHT30;55434;39.570;2.652;2022-08-19T13:08:38;33.06;41.96
68450;SHT30;55434;39.570;2.652;2022-08-19T13:11:15;32.92;41.69
68450;SHT30;55434;39.570;2.652;2022-08-19T13:13:43;33.26;41.55
68450;SHT30;55434;39.570;2.652;2022-08-19T13:16:11;33.26;40.88
68450;SHT30;55434;39.570;2.652;2022-08-19T13:18:38;33.38;40.93
68450;SHT30;55434;39.570;2.652;2022-08-19T13:21:06;33.62;40.69
68450;SHT30;55434;39.570;2.652;2022-08-19T13:23:33;33.35;40.79
68450;SHT30;55434;39.570;2.652;2022-08-19T13:26:00;32.84;41.56
68450;SHT30;55434;39.570;2.652;2022-08-19T13:28:27;31.15;45.53
68450;SHT30;55434;39.570;2.652;2022-08-19T13:31:18;30.67;46.75
68450;SHT30;55434;39.570;2.652;2022-08-19T13:34:03;31.82;44.99
68450;SHT30;55434;39.570;2.652;2022-08-19T13:36:34;30.84;46.42
68450;SHT30;55434;39.570;2.652;2022-08-19T13:39:00;30.32;47.70
68450;SHT30;55434;39.570;2.652;2022-08-19T13:44:23;29.92;48.82
68450;SHT30;55434;39.570;2.652;2022-08-19T13:46:49;30.65;47.02
68450;SHT30;55434;39.570;2.652;2022-08-19T13:49:18;29.95;48.49
68450;SHT30;55434;39.570;2.652;2022-08-19T13:51:43;29.58;49.08
68450;SHT30;55434;39.570;2.652;2022-08-19T13:54:10;30.29;47.44
68450;SHT30;55434;39.570;2.652;2022-08-19T13:56:44;30.53;47.20
68450;SHT30;55434;39.570;2.652;2022-08-19T13:59:11;30.26;47.69
68450;SHT30;55434;39.570;2.652;2022-08-19T14:01:38;30.09;48.03
68450;SHT30;55434;39.570;2.652;2022-08-19T14:04:07;30.06;48.04
68450;SHT30;55434;39.570;2.652;2022-08-19T14:06:39;30.06;48.12
68450;SHT30;55434;39.570;2.652;2022-08-19T14:09:06;30.23;47.90
68450;SHT30;55434;39.570;2.652;2022-08-19T14:11:34;30.34;47.53
68450;SHT30;55434;39.570;2.652;2022-08-19T14:13:59;31.63;44.93
68450;SHT30;55434;39.570;2.652;2022-08-19T14:16:26;32.13;44.16
68450;SHT30;55434;39.570;2.652;2022-08-19T14:18:52;31.96;44.13
68450;SHT30;55434;39.570;2.652;2022-08-19T14:21:22;31.93;45.21
68450;SHT30;55434;39.570;2.652;2022-08-19T14:23:49;32.31;44.84
68450;SHT30;55434;39.570;2.652;2022-08-19T14:26:18;31.69;46.05
68450;SHT30;55434;39.570;2.652;2022-08-19T14:28:44;31.76;45.58
68450;SHT30;55434;39.570;2.652;2022-08-19T14:31:11;31.79;45.39
68450;SHT30;55434;39.570;2.652;2022-08-19T14:33:38;31.87;45.14
68450;SHT30;55434;39.570;2.652;2022-08-19T14:36:04;32.12;44.38
68450;SHT30;55434;39.570;2.652;2022-08-19T14:38:30;32.33;44.39
68450;SHT30;55434;39.570;2.652;2022-08-19T14:41:06;32.77;44.13
68450;SHT30;55434;39.570;2.652;2022-08-19T14:43:33;32.57;43.66
68450;SHT30;55434;39.570;2.652;2022-08-19T14:45:58;33.02;42.64
68450;SHT30;55434;39.570;2.652;2022-08-19T14:48:24;32.55;43.23
68450;SHT30;55434;39.570;2.652;2022-08-19T14:50:50;33.46;41.61
68450;SHT30;55434;39.570;2.652;2022-08-19T14:53:16;34.79;39.03
68450;SHT30;55434;39.570;2.652;2022-08-19T14:55:45;34.36;39.78
68450;SHT30;55434;39.570;2.652;2022-08-19T14:58:11;35.18;38.69
68450;SHT30;55434;39.570;2.652;2022-08-19T15:00:37;34.57;38.61
68450;SHT30;55434;39.570;2.652;2022-08-19T15:03:03;33.87;39.64
68450;SHT30;55434;39.570;2.652;2022-08-19T15:05:28;34.57;38.81
68450;SHT30;55434;39.570;2.652;2022-08-19T15:07:54;34.48;38.41
68450;SHT30;55434;39.570;2.652;2022-08-19T15:10:22;34.03;39.30
68450;SHT30;55434;39.570;2.652;2022-08-19T15:12:50;34.30;38.87
68450;SHT30;55434;39.570;2.652;2022-08-19T15:15:15;33.81;40.07
68450;SHT30;55434;39.570;2.652;2022-08-19T15:17:43;32.88;41.41
68450;SHT30;55434;39.570;2.652;2022-08-19T15:20:11;33.47;40.69
68450;SHT30;55434;39.570;2.652;2022-08-19T15:22:38;34.51;38.71
68450;SHT30;55434;39.570;2.652;2022-08-19T15:25:06;34.71;38.79
68450;SHT30;55434;39.570;2.652;2022-08-19T15:27:32;35.36;37.48
68450;SHT30;55434;39.570;2.652;2022-08-19T15:29:57;34.81;37.73
68450;SHT30;55434;39.570;2.652;2022-08-19T15:32:23;34.25;38.69
68450;SHT30;55434;39.570;2.652;2022-08-19T15:34:51;33.74;38.14
68450;SHT30;55434;39.570;2.652;2022-08-19T15:37:17;34.07;38.41
68450;SHT30;55434;39.570;2.652;2022-08-19T15:39:42;33.46;40.07
68450;SHT30;55434;39.570;2.652;2022-08-19T15:42:08;33.62;39.66
68450;SHT30;55434;39.570;2.652;2022-08-19T15:44:33;33.57;39.62
68450;SHT30;55434;39.570;2.652;2022-08-19T15:46:59;33.87;39.52
68450;SHT30;55434;39.570;2.652;2022-08-19T15:49:25;33.42;40.73
68450;SHT30;55434;39.570;2.652;2022-08-19T15:51:50;33.93;39.26